Time;durP1;ratioP1;P1;durP2;ratioP2;P2;SDS_P1;SDS_P2;PMS_P1;PMS_P2;Temp;Humidity;BMP_temperature;BMP_pressure;BME280_temperature;BME280_humidity;BME280_pressure;Samples;Min_cycle;Max_cycle;Signal;HPM_P1;HPM_P2
2021/06/19 00:00:13;;;;;;;11.00;4.27;;;23.00;99.90;;;;;;5056279;28;20447;-84
2021/06/19 00:02:40;;;;;;;5.33;3.60;;;22.90;99.90;;;;;;5055912;28;20461;-85
2021/06/19 00:05:08;;;;;;;11.30;5.23;;;22.80;99.90;;;;;;5055878;28;20442;-84
2021/06/19 00:07:37;;;;;;;4.50;4.07;;;22.80;99.90;;;;;;5056128;28;20442;-84
2021/06/19 00:10:05;;;;;;;18.80;6.00;;;22.70;99.90;;;;;;5055820;28;20449;-85
2021/06/19 00:12:34;;;;;;;8.87;5.03;;;22.70;99.90;;;;;;5055647;28;20480;-86
2021/06/19 00:15:00;;;;;;;8.53;4.73;;;22.70;99.90;;;;;;5056048;28;20449;-82
2021/06/19 00:17:27;;;;;;;10.93;5.20;;;22.70;99.90;;;;;;5056041;28;20450;-86
2021/06/19 00:19:54;;;;;;;12.63;5.00;;;22.40;99.90;;;;;;5056019;28;20476;-82
2021/06/19 00:22:21;;;;;;;16.10;6.23;;;22.00;99.90;;;;;;5055918;28;20453;-79
2021/06/19 00:24:49;;;;;;;10.10;6.10;;;21.30;99.90;;;;;;5055542;28;20963;-79
2021/06/19 00:27:15;;;;;;;11.80;6.13;;;20.70;99.90;;;;;;5055323;28;20973;-82
2021/06/19 00:29:42;;;;;;;16.40;6.80;;;20.30;99.90;;;;;;5055493;28;20449;-82
2021/06/19 00:32:09;;;;;;;15.43;6.57;;;19.90;99.90;;;;;;5056325;28;20494;-82
2021/06/19 00:34:35;;;;;;;15.50;7.63;;;19.70;99.90;;;;;;5055612;28;20446;-83
2021/06/19 00:37:02;;;;;;;11.53;6.93;;;19.50;99.90;;;;;;5055272;28;20945;-83
2021/06/19 00:39:29;;;;;;;13.33;7.27;;;19.30;99.90;;;;;;5055041;28;20550;-80
2021/06/19 00:41:57;;;;;;;17.77;6.97;;;19.30;99.90;;;;;;5055372;28;20453;-80
2021/06/19 00:44:24;;;;;;;15.13;7.60;;;19.20;99.90;;;;;;5055451;28;20465;-80
2021/06/19 00:46:52;;;;;;;14.47;7.07;;;19.20;99.90;;;;;;5055339;28;20450;-80
2021/06/19 00:49:19;;;;;;;11.97;7.80;;;19.20;99.90;;;;;;5055358;28;20491;-80
2021/06/19 00:51:45;;;;;;;10.40;7.87;;;19.10;99.90;;;;;;5054910;28;20454;-81
2021/06/19 00:54:12;;;;;;;14.63;7.83;;;19.10;99.90;;;;;;5054923;28;20457;-80
2021/06/19 00:56:40;;;;;;;14.03;7.60;;;19.10;99.90;;;;;;5055172;28;20461;-80
2021/06/19 00:59:09;;;;;;;12.40;7.70;;;19.10;99.90;;;;;;5054929;28;20509;-81
2021/06/19 01:01:37;;;;;;;11.23;7.30;;;19.20;99.90;;;;;;5055115;28;20481;-80
2021/06/19 01:04:05;;;;;;;11.43;7.97;;;19.20;99.90;;;;;;5054981;28;20480;-80
2021/06/19 01:06:35;;;;;;;10.97;7.40;;;19.20;99.90;;;;;;5054996;28;20441;-80
2021/06/19 01:09:04;;;;;;;9.90;6.50;;;19.30;99.90;;;;;;5055027;28;20426;-80
2021/06/19 01:11:32;;;;;;;17.20;6.50;;;19.30;99.90;;;;;;5054902;28;20446;-80
2021/06/19 01:13:59;;;;;;;11.40;6.23;;;19.30;99.90;;;;;;5054519;28;21012;-81
2021/06/19 01:16:28;;;;;;;8.87;6.77;;;19.30;99.90;;;;;;5054634;28;20450;-81
2021/06/19 01:18:55;;;;;;;9.07;6.80;;;19.30;99.90;;;;;;5054492;28;20437;-81
2021/06/19 01:21:24;;;;;;;13.83;7.43;;;19.20;99.90;;;;;;5054651;28;20434;-81
2021/06/19 01:23:52;;;;;;;9.40;7.37;;;19.20;99.90;;;;;;5054402;28;20912;-83
2021/06/19 01:26:22;;;;;;;14.40;8.20;;;19.20;99.90;;;;;;5054623;28;20449;-83
2021/06/19 01:28:51;;;;;;;10.43;6.87;;;19.20;99.90;;;;;;5054396;28;20410;-82
2021/06/19 01:31:18;;;;;;;9.77;6.90;;;19.10;99.90;;;;;;5054240;28;20972;-83
2021/06/19 01:33:49;;;;;;;14.93;7.73;;;19.10;99.90;;;;;;5054442;28;20466;-81
2021/06/19 01:36:17;;;;;;;14.60;8.33;;;19.10;99.90;;;;;;5054230;28;20495;-81
2021/06/19 01:38:48;;;;;;;12.77;7.70;;;19.10;99.90;;;;;;5053878;28;20438;-82
2021/06/19 01:41:15;;;;;;;13.27;7.20;;;19.10;99.90;;;;;;5054615;28;20465;-82
2021/06/19 01:43:45;;;;;;;11.90;8.00;;;19.10;99.90;;;;;;5053783;28;20857;-82
2021/06/19 01:46:13;;;;;;;11.73;8.80;;;19.10;99.90;;;;;;5053863;28;20953;-82
2021/06/19 01:48:41;;;;;;;10.60;8.60;;;19.10;99.90;;;;;;5054308;28;20454;-82
2021/06/19 01:51:09;;;;;;;12.53;7.93;;;19.10;99.90;;;;;;5054000;28;20453;-82
2021/06/19 01:53:38;;;;;;;12.57;7.87;;;19.10;99.90;;;;;;5053997;28;20473;-82
2021/06/19 01:56:06;;;;;;;10.77;7.33;;;19.20;99.90;;;;;;5053799;28;20434;-82
2021/06/19 01:58:33;;;;;;;11.63;8.27;;;19.20;99.90;;;;;;5054046;28;20457;-82
2021/06/19 02:01:01;;;;;;;9.77;7.20;;;19.20;99.90;;;;;;5053888;28;20965;-81
2021/06/19 02:03:27;;;;;;;10.63;8.00;;;19.20;99.90;;;;;;5053160;28;20512;-82
2021/06/19 02:05:54;;;;;;;12.63;7.50;;;19.20;99.90;;;;;;5054250;28;20448;-82
2021/06/19 02:08:21;;;;;;;9.27;7.13;;;19.10;99.90;;;;;;5053841;28;20461;-83
2021/06/19 02:10:49;;;;;;;9.30;6.73;;;19.10;99.90;;;;;;5054424;28;20460;-83
2021/06/19 02:13:15;;;;;;;16.30;8.13;;;19.10;99.90;;;;;;5053762;28;20450;-83
2021/06/19 02:15:44;;;;;;;10.40;7.23;;;19.10;99.90;;;;;;5053791;28;20460;-82
2021/06/19 02:18:12;;;;;;;10.00;7.83;;;19.00;99.90;;;;;;5053432;28;20445;-83
2021/06/19 02:20:39;;;;;;;10.10;8.13;;;19.00;99.90;;;;;;5053641;28;20458;-82
2021/06/19 02:23:06;;;;;;;16.53;7.90;;;18.80;99.90;;;;;;5053173;28;20891;-82
2021/06/19 02:25:33;;;;;;;13.10;7.80;;;18.80;99.90;;;;;;5053591;28;20485;-82
2021/06/19 02:28:04;;;;;;;15.70;8.43;;;18.80;99.90;;;;;;5053251;28;20969;-82
2021/06/19 02:30:33;;;;;;;13.77;7.60;;;18.80;99.90;;;;;;5053871;28;20426;-81
2021/06/19 02:33:01;;;;;;;13.37;8.00;;;18.80;99.90;;;;;;5053420;28;20470;-82
2021/06/19 02:35:31;;;;;;;14.87;7.60;;;18.70;99.90;;;;;;5053432;28;20453;-82
2021/06/19 02:37:58;;;;;;;13.33;7.97;;;18.80;99.90;;;;;;5053403;28;20449;-82
2021/06/19 02:40:25;;;;;;;13.17;7.17;;;18.70;99.90;;;;;;5052973;28;20478;-82
2021/06/19 02:42:52;;;;;;;18.43;9.20;;;18.70;99.90;;;;;;5053212;28;20496;-82
2021/06/19 02:45:19;;;;;;;12.70;8.57;;;18.60;99.90;;;;;;5053026;28;20456;-82
2021/06/19 02:47:48;;;;;;;15.37;8.20;;;18.70;99.90;;;;;;5052955;28;20952;-82
2021/06/19 02:50:17;;;;;;;12.30;7.70;;;18.70;99.90;;;;;;5053268;28;20441;-82
2021/06/19 02:52:46;;;;;;;17.63;7.63;;;18.60;99.90;;;;;;5053227;28;20462;-82
2021/06/19 02:55:14;;;;;;;13.07;8.30;;;18.70;99.90;;;;;;5053211;28;20452;-82
2021/06/19 02:57:42;;;;;;;12.03;8.33;;;18.70;99.90;;;;;;5053203;28;20442;-82
2021/06/19 03:00:12;;;;;;;12.43;8.37;;;18.70;99.90;;;;;;5053150;28;20453;-81
2021/06/19 03:02:39;;;;;;;10.83;7.70;;;18.70;99.90;;;;;;5052662;28;20485;-81
2021/06/19 03:05:07;;;;;;;13.07;8.57;;;18.70;99.90;;;;;;5053140;28;20457;-81
2021/06/19 03:07:34;;;;;;;13.83;7.60;;;18.70;99.90;;;;;;5053135;28;20454;-81
2021/06/19 03:10:02;;;;;;;14.13;7.73;;;18.80;99.90;;;;;;5053109;28;20449;-82
2021/06/19 03:12:29;;;;;;;11.67;8.17;;;18.80;99.90;;;;;;5052816;28;20465;-82
2021/06/19 03:14:56;;;;;;;12.70;8.10;;;18.80;99.90;;;;;;5054243;28;20449;-82
2021/06/19 03:17:23;;;;;;;15.60;8.90;;;18.80;99.90;;;;;;5057093;28;20445;-81
2021/06/19 03:19:51;;;;;;;16.17;8.17;;;18.90;99.90;;;;;;5057038;28;20503;-81
2021/06/19 03:22:18;;;;;;;12.20;8.77;;;18.90;99.90;;;;;;5056941;28;20476;-81
2021/06/19 03:24:45;;;;;;;9.87;7.80;;;18.90;99.90;;;;;;5056618;28;20492;-81
2021/06/19 03:27:15;;;;;;;12.97;8.33;;;18.90;99.90;;;;;;5056744;28;20438;-81
2021/06/19 03:29:42;;;;;;;13.53;8.43;;;18.90;99.90;;;;;;5057658;28;20441;-81
2021/06/19 03:32:09;;;;;;;15.47;9.23;;;18.90;99.90;;;;;;5056765;28;20473;-81
2021/06/19 03:34:37;;;;;;;15.13;7.67;;;18.90;99.90;;;;;;5056408;28;20953;-81
2021/06/19 03:37:05;;;;;;;10.93;8.90;;;18.90;99.90;;;;;;5056703;28;20449;-82
2021/06/19 03:39:34;;;;;;;11.67;8.13;;;18.90;99.90;;;;;;5056326;28;20470;-81
2021/06/19 03:42:02;;;;;;;16.57;9.90;;;18.90;99.90;;;;;;5056560;28;20485;-81
2021/06/19 03:44:30;;;;;;;13.63;8.80;;;18.90;99.90;;;;;;5057347;28;20480;-81
2021/06/19 03:46:56;;;;;;;12.03;8.20;;;19.00;99.90;;;;;;5056558;28;20453;-82
2021/06/19 03:49:23;;;;;;;9.00;8.07;;;19.10;99.90;;;;;;5056430;28;20807;-81
2021/06/19 03:51:50;;;;;;;13.10;9.43;;;19.00;99.90;;;;;;5056112;28;20438;-81
2021/06/19 03:54:17;;;;;;;11.87;8.10;;;19.10;99.90;;;;;;5056397;28;20442;-81
2021/06/19 03:56:43;;;;;;;10.50;8.47;;;19.10;99.90;;;;;;5056329;28;20457;-81
2021/06/19 03:59:10;;;;;;;10.83;8.63;;;19.20;99.90;;;;;;5056324;28;20442;-81
2021/06/19 04:01:38;;;;;;;12.73;9.10;;;19.20;99.90;;;;;;5056076;28;20441;-82
2021/06/19 04:04:05;;;;;;;14.93;8.67;;;19.20;99.90;;;;;;5055956;28;21010;-81
2021/06/19 04:06:32;;;;;;;13.00;8.93;;;19.20;99.90;;;;;;5055995;28;20925;-81
2021/06/19 04:08:58;;;;;;;11.80;8.20;;;19.20;99.90;;;;;;5056178;28;20452;-81
2021/06/19 04:11:26;;;;;;;10.80;8.40;;;19.20;99.90;;;;;;5056075;28;20452;-81
2021/06/19 04:13:53;;;;;;;11.30;9.20;;;19.20;99.90;;;;;;5055850;28;20474;-81
2021/06/19 04:16:19;;;;;;;14.50;9.10;;;19.20;99.90;;;;;;5056033;28;20454;-81
2021/06/19 04:18:47;;;;;;;13.10;8.13;;;19.20;99.90;;;;;;5055919;28;20461;-81
2021/06/19 04:21:14;;;;;;;13.13;9.03;;;19.30;99.90;;;;;;5055871;28;20449;-81
2021/06/19 04:23:41;;;;;;;8.83;7.93;;;19.30;99.90;;;;;;5055482;28;20489;-81
2021/06/19 04:26:08;;;;;;;11.53;8.50;;;19.30;99.90;;;;;;5055268;28;20453;-81
2021/06/19 04:28:34;;;;;;;13.70;8.80;;;19.30;99.90;;;;;;5055382;28;20449;-81
2021/06/19 04:31:03;;;;;;;14.17;9.03;;;19.30;99.90;;;;;;5055720;28;20446;-81
2021/06/19 04:33:30;;;;;;;9.50;7.43;;;19.30;99.90;;;;;;5055586;28;20545;-81
2021/06/19 04:35:58;;;;;;;11.40;8.27;;;19.40;99.90;;;;;;5055352;28;20442;-81
2021/06/19 04:38:25;;;;;;;13.90;9.47;;;19.40;99.90;;;;;;5055792;28;20448;-81
2021/06/19 04:40:55;;;;;;;12.57;8.87;;;19.40;99.90;;;;;;5055265;28;20466;-83
2021/06/19 04:43:27;;;;;;;13.90;10.00;;;19.40;99.90;;;;;;5055997;28;20482;-82
2021/06/19 04:45:54;;;;;;;12.03;9.00;;;19.40;99.90;;;;;;5055170;28;20438;-82
2021/06/19 04:48:21;;;;;;;13.43;10.03;;;19.40;99.90;;;;;;5055401;28;20454;-82
2021/06/19 04:50:48;;;;;;;13.30;9.13;;;19.50;99.90;;;;;;5055015;28;20829;-82
2021/06/19 04:53:16;;;;;;;14.50;8.80;;;19.50;99.90;;;;;;5055246;28;20545;-82
2021/06/19 04:55:43;;;;;;;13.50;8.93;;;19.60;99.90;;;;;;5055267;28;20441;-82
2021/06/19 04:58:10;;;;;;;14.20;10.37;;;19.60;99.90;;;;;;5055217;28;20446;-82
2021/06/19 05:00:37;;;;;;;13.17;9.37;;;19.70;99.90;;;;;;5055849;28;20819;-84
2021/06/19 05:03:05;;;;;;;11.00;8.60;;;19.70;99.90;;;;;;5055027;28;20919;-83
2021/06/19 05:05:33;;;;;;;13.10;8.53;;;19.80;99.90;;;;;;5055335;28;20496;-80
2021/06/19 05:07:59;;;;;;;13.00;8.70;;;19.90;99.90;;;;;;5055028;28;20545;-78
2021/06/19 05:10:28;;;;;;;12.00;9.37;;;19.90;99.90;;;;;;5054927;28;20450;-80
2021/06/19 05:12:55;;;;;;;11.63;8.60;;;20.00;99.90;;;;;;5054871;28;20809;-79
2021/06/19 05:15:24;;;;;;;13.83;8.73;;;20.20;99.90;;;;;;5054836;28;20446;-80
2021/06/19 05:17:51;;;;;;;12.10;8.37;;;20.30;99.90;;;;;;5054828;28;20537;-80
2021/06/19 05:20:18;;;;;;;11.47;8.57;;;20.30;99.90;;;;;;5054751;28;20450;-80
2021/06/19 05:22:45;;;;;;;10.67;8.40;;;20.40;99.90;;;;;;5054422;28;20457;-80
2021/06/19 05:25:13;;;;;;;10.80;7.87;;;20.50;99.90;;;;;;5054630;28;20489;-83
2021/06/19 05:27:42;;;;;;;9.77;7.13;;;20.50;99.90;;;;;;5054579;28;20444;-83
2021/06/19 05:30:10;;;;;;;12.30;7.57;;;20.60;99.90;;;;;;5054594;28;20434;-83
2021/06/19 05:32:37;;;;;;;10.57;8.10;;;20.80;99.90;;;;;;5054154;28;20844;-83
2021/06/19 05:35:04;;;;;;;10.23;7.60;;;20.90;99.90;;;;;;5054465;28;20457;-83
2021/06/19 05:37:31;;;;;;;8.57;7.40;;;21.00;99.90;;;;;;5054281;28;20453;-83
2021/06/19 05:39:58;;;;;;;10.20;7.90;;;21.20;99.90;;;;;;5053301;28;20485;-83
2021/06/19 05:42:24;;;;;;;8.97;7.67;;;21.30;99.90;;;;;;5054056;28;20453;-83
2021/06/19 05:44:53;;;;;;;17.67;8.20;;;21.20;99.90;;;;;;5054332;28;20477;-83
2021/06/19 05:47:24;;;;;;;12.70;8.60;;;21.30;99.90;;;;;;5054394;28;20429;-82
2021/06/19 05:49:53;;;;;;;11.87;8.60;;;21.40;99.90;;;;;;5054014;28;20418;-82
2021/06/19 05:52:26;;;;;;;9.50;8.50;;;21.50;99.90;;;;;;5054145;28;20560;-82
2021/06/19 05:55:03;;;;;;;14.60;8.30;;;21.70;99.90;;;;;;5054705;28;20442;-82
2021/06/19 05:58:08;;;;;;;11.10;8.60;;;21.80;99.90;;;;;;5054174;28;20440;-82
2021/06/19 06:00:51;;;;;;;8.77;7.83;;;21.90;99.90;;;;;;5053497;28;20449;-82
2021/06/19 06:54:02;;;;;;;10.18;8.82;;;25.80;99.90;;;;;;5054835;22;20595;-83
2021/06/19 06:56:31;;;;;;;8.68;7.88;;;26.00;99.90;;;;;;5053806;28;20558;-83
2021/06/19 06:58:58;;;;;;;7.95;6.93;;;26.00;99.90;;;;;;5052958;28;20207;-83
2021/06/19 07:01:24;;;;;;;12.15;8.13;;;26.00;99.90;;;;;;5053204;28;20202;-83
2021/06/19 07:03:55;;;;;;;10.07;8.07;;;26.00;99.90;;;;;;5052996;28;20222;-83
2021/06/19 07:06:23;;;;;;;12.00;7.88;;;25.90;99.90;;;;;;5053398;28;20213;-83
2021/06/19 07:08:50;;;;;;;8.40;7.60;;;26.00;99.90;;;;;;5053087;28;20207;-83
2021/06/19 07:11:17;;;;;;;9.05;8.13;;;26.00;99.90;;;;;;5053046;28;20213;-84
2021/06/19 07:13:43;;;;;;;10.57;8.40;;;26.20;99.90;;;;;;5053011;28;20223;-84
2021/06/19 07:16:10;;;;;;;9.35;8.35;;;26.30;99.90;;;;;;5053091;28;20210;-83
2021/06/19 07:18:37;;;;;;;11.05;8.85;;;26.50;99.90;;;;;;5053193;28;20206;-83
2021/06/19 07:21:04;;;;;;;13.63;8.93;;;26.50;99.90;;;;;;5053135;28;20281;-83
2021/06/19 07:23:33;;;;;;;9.35;8.30;;;26.70;99.90;;;;;;5052851;28;20226;-83
2021/06/19 07:26:00;;;;;;;9.50;8.50;;;26.70;99.90;;;;;;5053084;28;20301;-84
2021/06/19 07:28:28;;;;;;;11.90;8.40;;;26.80;99.90;;;;;;5053004;28;20289;-83
2021/06/19 07:30:55;;;;;;;10.43;9.35;;;27.00;99.90;;;;;;5052947;28;20199;-84
2021/06/19 07:33:22;;;;;;;11.38;8.00;;;27.40;99.90;;;;;;5052917;28;20226;-83
2021/06/19 07:35:48;;;;;;;10.30;8.73;;;27.60;99.90;;;;;;5052741;28;20198;-84
2021/06/19 07:38:15;;;;;;;10.48;8.13;;;27.80;99.90;;;;;;5052817;28;20232;-83
2021/06/19 07:40:43;;;;;;;9.60;8.55;;;28.00;99.90;;;;;;5052746;28;20204;-84
2021/06/19 07:43:10;;;;;;;9.75;8.63;;;28.20;99.90;;;;;;5052362;28;20608;-84
2021/06/19 07:45:37;;;;;;;9.07;7.57;;;28.40;99.90;;;;;;5052603;28;20238;-85
2021/06/19 07:48:04;;;;;;;9.02;8.02;;;28.70;99.90;;;;;;5052795;28;20203;-86
2021/06/19 07:50:31;;;;;;;10.30;8.43;;;29.00;99.90;;;;;;5052715;28;20215;-83
2021/06/19 07:52:57;;;;;;;8.25;7.45;;;29.30;99.90;;;;;;5052428;28;20244;-85
2021/06/19 07:55:24;;;;;;;8.20;7.32;;;29.70;99.90;;;;;;5052955;28;20219;-81
2021/06/19 07:57:52;;;;;;;8.18;7.47;;;30.20;99.90;;;;;;5052619;28;20202;-83
2021/06/19 08:00:20;;;;;;;8.90;6.88;;;30.40;99.90;;;;;;5052628;28;20209;-83
2021/06/19 08:02:48;;;;;;;8.52;6.43;;;30.90;99.90;;;;;;5055170;28;20588;-81
2021/06/19 08:05:15;;;;;;;7.70;6.80;;;31.10;99.90;;;;;;5056571;28;20231;-81
2021/06/19 08:07:42;;;;;;;7.68;7.07;;;31.40;99.90;;;;;;5055888;28;20738;-80
2021/06/19 08:10:10;;;;;;;7.15;6.65;;;31.60;99.90;;;;;;5056257;28;20211;-81
2021/06/19 08:12:37;;;;;;;10.20;7.80;;;32.00;99.90;;;;;;5056007;28;20251;-81
2021/06/19 08:15:07;;;;;;;8.52;7.35;;;32.40;99.90;;;;;;5055786;28;20203;-81
2021/06/19 08:17:34;;;;;;;7.65;6.80;;;32.80;98.90;;;;;;5055937;28;20259;-81
2021/06/19 08:20:01;;;;;;;8.82;8.13;;;33.20;97.20;;;;;;5055882;28;20319;-81
2021/06/19 08:22:27;;;;;;;8.35;7.65;;;33.60;96.80;;;;;;5055581;28;20226;-81
2021/06/19 08:24:54;;;;;;;8.20;7.40;;;33.60;94.80;;;;;;5055711;28;20219;-81
2021/06/19 08:27:25;;;;;;;9.07;8.25;;;33.60;94.40;;;;;;5055778;28;20599;-81
2021/06/19 08:29:52;;;;;;;7.25;6.63;;;33.30;94.30;;;;;;5055756;28;20234;-81
2021/06/19 08:32:20;;;;;;;9.73;7.18;;;33.10;93.90;;;;;;5055430;28;20741;-81
2021/06/19 08:34:47;;;;;;;7.32;6.40;;;32.60;92.40;;;;;;5055563;28;20206;-83
2021/06/19 08:37:14;;;;;;;7.80;7.15;;;32.20;93.30;;;;;;5055425;28;20205;-83
2021/06/19 08:39:41;;;;;;;7.68;7.07;;;32.10;93.40;;;;;;5055633;28;20188;-83
2021/06/19 08:42:08;;;;;;;11.07;6.32;;;31.90;92.90;;;;;;5055497;28;20276;-83
2021/06/19 08:44:35;;;;;;;7.93;7.22;;;31.90;93.10;;;;;;5055403;28;20224;-83
2021/06/19 08:47:02;;;;;;;8.48;7.13;;;31.90;94.70;;;;;;5055282;28;20204;-82
2021/06/19 08:49:30;;;;;;;7.30;6.70;;;32.10;93.40;;;;;;5055345;28;20199;-83
2021/06/19 08:51:59;;;;;;;10.43;7.32;;;31.80;93.40;;;;;;5054841;28;20202;-82
2021/06/19 08:54:26;;;;;;;8.60;7.28;;;31.90;93.90;;;;;;5055339;28;20233;-84
2021/06/19 08:56:53;;;;;;;9.80;7.10;;;31.70;92.70;;;;;;5055240;28;20205;-82
2021/06/19 08:59:21;;;;;;;9.70;7.32;;;31.50;93.20;;;;;;5054996;28;20200;-83
2021/06/19 09:01:48;;;;;;;10.20;7.15;;;31.30;94.10;;;;;;5054737;28;20209;-81
2021/06/19 09:04:15;;;;;;;8.63;7.55;;;31.10;93.10;;;;;;5055122;28;20213;-82
2021/06/19 09:06:45;;;;;;;7.38;6.78;;;30.80;95.40;;;;;;5054793;28;20696;-82
2021/06/19 09:09:14;;;;;;;7.13;6.43;;;30.70;94.70;;;;;;5055098;28;20214;-83
2021/06/19 09:11:42;;;;;;;10.07;7.38;;;30.70;94.60;;;;;;5055230;28;20218;-81
2021/06/19 09:14:11;;;;;;;7.65;7.00;;;30.70;95.70;;;;;;5054751;28;20698;-82
2021/06/19 09:16:38;;;;;;;9.00;8.10;;;30.60;93.50;;;;;;5054602;28;20189;-81
2021/06/19 09:19:24;;;;;;;7.47;6.82;;;30.50;94.90;;;;;;5054915;28;20201;-81
2021/06/19 09:22:10;;;;;;;7.95;7.18;;;30.50;95.70;;;;;;5054799;28;20194;-82
2021/06/19 09:24:45;;;;;;;7.18;6.47;;;30.50;96.40;;;;;;5054747;28;20220;-82
2021/06/19 09:27:32;;;;;;;8.35;7.40;;;30.40;95.80;;;;;;5054631;28;20202;-82
2021/06/19 09:30:11;;;;;;;7.55;6.80;;;30.50;95.00;;;;;;5054665;28;20183;-83
2021/06/19 09:32:45;;;;;;;7.70;6.63;;;30.50;95.20;;;;;;5054954;28;20284;-82
2021/06/19 09:35:14;;;;;;;7.45;6.45;;;30.40;95.80;;;;;;5054250;28;20631;-82
2021/06/19 09:37:44;;;;;;;10.07;7.53;;;30.50;95.50;;;;;;5055146;28;20551;-82
2021/06/19 09:40:22;;;;;;;7.40;6.70;;;30.50;95.00;;;;;;5054291;28;20661;-82
2021/06/19 09:42:49;;;;;;;11.48;7.15;;;30.60;94.70;;;;;;5054351;28;20222;-82
2021/06/19 09:45:21;;;;;;;9.43;6.55;;;30.60;95.10;;;;;;5054316;28;20207;-82
2021/06/19 09:47:49;;;;;;;10.23;6.78;;;30.70;92.50;;;;;;5054334;28;20194;-81
2021/06/19 09:50:19;;;;;;;8.20;6.70;;;30.80;92.30;;;;;;5054002;28;20202;-82
2021/06/19 09:52:48;;;;;;;7.25;6.55;;;30.80;93.10;;;;;;5054360;28;20274;-82
2021/06/19 09:55:17;;;;;;;9.88;6.78;;;31.10;92.00;;;;;;5054147;28;20204;-81
2021/06/19 09:57:45;;;;;;;7.80;5.93;;;31.10;92.00;;;;;;5054134;28;20187;-82
2021/06/19 10:00:17;;;;;;;8.20;7.35;;;31.00;92.10;;;;;;5054148;28;20191;-82
2021/06/19 10:02:45;;;;;;;6.85;6.18;;;31.00;93.90;;;;;;5054354;28;20232;-82
2021/06/19 10:05:16;;;;;;;8.00;7.00;;;31.00;91.90;;;;;;5056143;28;20305;-81
2021/06/19 10:07:45;;;;;;;8.43;6.07;;;31.10;91.90;;;;;;5054390;28;20198;-83
2021/06/19 10:10:14;;;;;;;8.02;6.35;;;31.10;90.20;;;;;;5054202;28;20198;-82
2021/06/19 10:12:41;;;;;;;6.43;5.97;;;30.80;91.10;;;;;;5053567;28;20230;-82
2021/06/19 10:15:09;;;;;;;12.85;7.45;;;30.80;91.90;;;;;;5053580;28;20195;-82
2021/06/19 10:17:38;;;;;;;6.97;5.65;;;30.90;89.70;;;;;;5053787;28;20191;-83
2021/06/19 10:20:07;;;;;;;6.75;6.25;;;30.90;90.40;;;;;;5053455;28;20558;-81
2021/06/19 10:22:36;;;;;;;6.25;5.85;;;30.90;90.20;;;;;;5053505;28;20874;-81
2021/06/19 10:25:06;;;;;;;9.27;6.40;;;31.00;89.10;;;;;;5052791;28;20207;-82
2021/06/19 10:27:36;;;;;;;11.18;6.47;;;31.10;88.10;;;;;;5053655;28;20190;-82
2021/06/19 10:30:05;;;;;;;5.72;5.22;;;31.00;86.30;;;;;;5053471;28;20547;-82
2021/06/19 10:32:39;;;;;;;7.30;5.70;;;31.10;88.40;;;;;;5053255;28;20226;-84
2021/06/19 10:35:07;;;;;;;7.63;6.30;;;31.00;85.10;;;;;;5053525;28;20183;-82
2021/06/19 10:37:34;;;;;;;7.25;6.50;;;31.10;85.90;;;;;;5053526;28;20560;-82
2021/06/19 10:40:17;;;;;;;6.70;6.10;;;31.20;88.80;;;;;;5053487;28;20210;-82
2021/06/19 10:42:45;;;;;;;7.07;5.97;;;31.30;86.30;;;;;;5053368;28;20222;-82
2021/06/19 10:45:20;;;;;;;8.35;6.30;;;31.20;84.80;;;;;;5053381;28;20207;-85
2021/06/19 10:48:06;;;;;;;7.53;6.05;;;31.20;81.90;;;;;;5053644;28;20198;-84
2021/06/19 10:50:33;;;;;;;6.20;5.70;;;31.10;83.90;;;;;;5054099;28;20203;-84
2021/06/19 10:53:06;;;;;;;6.55;5.53;;;31.00;84.90;;;;;;5052946;28;20234;-86
2021/06/19 10:55:33;;;;;;;68.20;13.48;;;31.10;85.70;;;;;;5053378;28;20561;-86
2021/06/19 10:58:17;;;;;;;6.30;5.68;;;31.10;85.20;;;;;;5053321;28;20286;-85
2021/06/19 11:00:46;;;;;;;7.47;6.28;;;31.10;83.00;;;;;;5053621;28;20241;-84
2021/06/19 11:03:14;;;;;;;7.13;6.43;;;31.10;84.50;;;;;;5054304;28;20223;-85
2021/06/19 11:05:58;;;;;;;6.30;5.65;;;31.20;82.40;;;;;;5053930;28;20213;-86
2021/06/19 11:08:25;;;;;;;7.53;5.75;;;31.30;81.40;;;;;;5053192;28;20587;-84
2021/06/19 11:10:55;;;;;;;8.10;6.10;;;31.40;80.80;;;;;;5053213;28;20187;-84
2021/06/19 11:13:43;;;;;;;10.88;6.22;;;31.40;80.60;;;;;;5052747;28;20577;-86
2021/06/19 11:16:57;;;;;;;5.32;4.82;;;31.20;79.90;;;;;;5053321;28;20187;-86
2021/06/19 11:19:46;;;;;;;5.82;5.15;;;31.20;75.20;;;;;;5052766;28;20198;-87
2021/06/19 11:22:35;;;;;;;13.00;6.85;;;31.10;76.00;;;;;;5052712;28;20809;-84
2021/06/19 11:25:13;;;;;;;6.68;5.82;;;31.00;77.00;;;;;;5053057;28;20213;-84
2021/06/19 11:28:05;;;;;;;8.73;5.72;;;30.80;79.10;;;;;;5053014;28;20187;-84
2021/06/19 11:30:53;;;;;;;9.27;5.40;;;30.80;76.80;;;;;;5034081;28;20206;-85
2021/06/19 11:33:38;;;;;;;5.80;5.13;;;30.70;77.10;;;;;;5053086;28;20303;-85
2021/06/19 11:37:02;;;;;;;8.27;4.72;;;30.60;78.10;;;;;;5053029;28;20249;-84
2021/06/19 11:39:34;;;;;;;6.70;5.55;;;30.60;74.10;;;;;;5056926;28;20565;-85
2021/06/19 11:42:02;;;;;;;6.25;4.47;;;30.70;72.30;;;;;;5056869;28;20199;-85
2021/06/19 11:44:34;;;;;;;8.07;6.07;;;30.60;72.90;;;;;;5057242;28;20176;-84
2021/06/19 11:47:07;;;;;;;7.70;4.88;;;30.50;73.90;;;;;;5056900;28;20227;-84
2021/06/19 11:49:36;;;;;;;5.75;5.25;;;30.50;75.60;;;;;;5056822;28;20198;-85
2021/06/19 11:52:05;;;;;;;10.48;5.03;;;30.50;76.60;;;;;;5056925;28;20200;-85
2021/06/19 11:54:33;;;;;;;10.57;4.90;;;30.50;76.70;;;;;;5056200;28;20668;-83
2021/06/19 11:56:59;;;;;;;11.25;4.97;;;30.60;71.10;;;;;;5056163;28;20189;-85
2021/06/19 11:59:31;;;;;;;8.50;5.53;;;30.50;73.70;;;;;;5056436;28;20190;-85
2021/06/19 12:01:58;;;;;;;9.98;5.03;;;30.60;73.10;;;;;;5057515;28;20195;-83
2021/06/19 12:04:29;;;;;;;5.93;5.00;;;30.50;71.20;;;;;;5057038;28;20190;-84
2021/06/19 12:06:57;;;;;;;10.85;5.15;;;30.30;76.30;;;;;;5056251;28;20213;-83
2021/06/19 12:09:26;;;;;;;10.63;5.75;;;30.30;76.30;;;;;;5056584;28;20183;-85
2021/06/19 12:11:55;;;;;;;9.38;5.57;;;30.20;74.90;;;;;;5055874;28;20285;-84
2021/06/19 12:14:25;;;;;;;4.55;4.15;;;30.40;72.10;;;;;;5056079;28;20207;-83
2021/06/19 12:16:53;;;;;;;4.30;3.90;;;30.40;70.20;;;;;;5055811;28;20700;-85
2021/06/19 12:19:21;;;;;;;7.60;3.55;;;30.30;64.90;;;;;;5055829;28;20199;-84
2021/06/19 12:21:50;;;;;;;9.75;5.00;;;30.30;66.10;;;;;;5055916;28;20211;-84
2021/06/19 12:24:22;;;;;;;5.40;3.95;;;30.40;66.30;;;;;;5055626;28;20201;-83
2021/06/19 12:27:15;;;;;;;9.70;4.78;;;30.30;67.00;;;;;;5055799;28;20586;-85
2021/06/19 12:29:46;;;;;;;5.78;5.05;;;30.30;68.50;;;;;;5032279;28;20202;-85
2021/06/19 12:32:25;;;;;;;8.30;5.22;;;30.30;69.60;;;;;;5055811;28;20392;-83
2021/06/19 12:34:54;;;;;;;5.35;4.75;;;30.20;70.90;;;;;;5055433;28;20699;-83
2021/06/19 12:37:28;;;;;;;6.38;5.07;;;30.00;71.30;;;;;;5055389;28;20678;-85
2021/06/19 12:39:55;;;;;;;10.07;5.80;;;30.00;73.00;;;;;;5055689;28;20198;-85
2021/06/19 12:42:37;;;;;;;6.10;5.35;;;30.10;73.20;;;;;;5055237;28;20740;-84
2021/06/19 12:45:05;;;;;;;7.78;5.70;;;30.00;74.50;;;;;;5055555;28;20558;-86
2021/06/19 12:47:40;;;;;;;6.43;5.93;;;29.90;75.50;;;;;;5054862;28;20234;-81
2021/06/19 12:50:08;;;;;;;14.00;6.03;;;30.00;76.20;;;;;;5055483;28;20200;-84
2021/06/19 12:52:54;;;;;;;10.93;5.30;;;30.00;75.80;;;;;;5054934;28;20241;-82
2021/06/19 12:55:22;;;;;;;7.30;5.80;;;29.90;75.90;;;;;;5055024;28;20572;-84
2021/06/19 12:58:16;;;;;;;9.40;6.70;;;29.80;76.20;;;;;;5055282;28;20578;-83
2021/06/19 13:00:53;;;;;;;6.78;6.10;;;29.70;76.90;;;;;;5051272;28;20679;-84
2021/06/19 13:03:22;;;;;;;5.97;5.38;;;29.50;78.50;;;;;;5055598;28;20292;-86
2021/06/19 13:05:51;;;;;;;7.45;6.72;;;29.60;76.20;;;;;;5054771;28;20780;-85
2021/06/19 13:08:20;;;;;;;9.15;6.00;;;29.60;76.60;;;;;;5055214;28;20180;-86
2021/06/19 13:10:47;;;;;;;6.60;6.03;;;29.60;77.60;;;;;;5054846;28;20635;-83
2021/06/19 13:13:14;;;;;;;13.60;5.80;;;29.70;77.70;;;;;;5054974;28;20231;-85
2021/06/19 13:15:57;;;;;;;11.50;5.75;;;29.60;77.80;;;;;;5055085;28;20198;-85
2021/06/19 13:18:24;;;;;;;8.45;5.90;;;29.80;76.30;;;;;;5054970;28;20258;-84
2021/06/19 13:21:00;;;;;;;9.73;6.32;;;29.70;76.90;;;;;;5054654;28;20683;-85
2021/06/19 13:23:29;;;;;;;6.32;5.72;;;29.70;78.40;;;;;;5054552;28;20721;-84
2021/06/19 13:26:02;;;;;;;8.65;6.07;;;29.70;77.70;;;;;;5054755;28;20294;-84
2021/06/19 13:28:51;;;;;;;7.40;6.40;;;29.60;79.00;;;;;;5054476;28;20669;-84
2021/06/19 13:31:27;;;;;;;11.63;6.53;;;29.40;79.30;;;;;;5048278;28;20218;-85
2021/06/19 13:33:56;;;;;;;7.85;7.05;;;29.30;80.00;;;;;;5054313;28;20234;-84
2021/06/19 13:36:26;;;;;;;8.63;6.15;;;29.40;78.90;;;;;;5054350;28;20278;-83
2021/06/19 13:39:00;;;;;;;10.63;6.72;;;29.50;79.30;;;;;;5054570;28;20205;-85
2021/06/19 13:41:37;;;;;;;6.90;5.68;;;29.50;78.20;;;;;;5054187;28;20194;-82
2021/06/19 13:44:04;;;;;;;9.48;6.80;;;29.60;78.30;;;;;;5054399;28;20223;-83